sensor_id;sensor_type;location;lat;lon;timestamp;temperature;humidity
16966;DHT22;8599;47.852;12.070;2022-08-19T00:00:07;21.10;99.90
16966;DHT22;8599;47.852;12.070;2022-08-19T00:02:35;21.00;99.90
16966;DHT22;8599;47.852;12.070;2022-08-19T00:05:04;21.00;99.90
16966;DHT22;8599;47.852;12.070;2022-08-19T00:07:31;21.10;99.90
16966;DHT22;8599;47.852;12.070;2022-08-19T00:09:58;21.10;99.90
16966;DHT22;8599;47.852;12.070;2022-08-19T00:12:25;21.10;99.90
16966;DHT22;8599;47.852;12.070;2022-08-19T00:14:52;21.10;99.90
16966;DHT22;8599;47.852;12.070;2022-08-19T00:17:20;21.00;99.90
16966;DHT22;8599;47.852;12.070;2022-08-19T00:19:47;21.00;99.90
16966;DHT22;8599;47.852;12.070;2022-08-19T00:22:15;21.00;99.90
16966;DHT22;8599;47.852;12.070;2022-08-19T00:24:43;21.00;99.90
16966;DHT22;8599;47.852;12.070;2022-08-19T00:27:10;21.00;99.90
16966;DHT22;8599;47.852;12.070;2022-08-19T00:29:38;20.90;99.90
16966;DHT22;8599;47.852;12.070;2022-08-19T00:32:05;20.80;99.90
16966;DHT22;8599;47.852;12.070;2022-08-19T00:34:32;20.90;99.90
16966;DHT22;8599;47.852;12.070;2022-08-19T00:36:59;20.90;99.90
16966;DHT22;8599;47.852;12.070;2022-08-19T00:39:27;20.80;99.90
16966;DHT22;8599;47.852;12.070;2022-08-19T00:41:54;20.80;99.90
16966;DHT22;8599;47.852;12.070;2022-08-19T00:44:25;21.00;99.90
16966;DHT22;8599;47.852;12.070;2022-08-19T00:46:54;20.90;99.90
16966;DHT22;8599;47.852;12.070;2022-08-19T00:49:27;20.80;99.90
16966;DHT22;8599;47.852;12.070;2022-08-19T00:51:59;20.80;99.90
16966;DHT22;8599;47.852;12.070;2022-08-19T00:54:28;20.80;99.90
16966;DHT22;8599;47.852;12.070;2022-08-19T00:56:57;20.70;99.90
16966;DHT22;8599;47.852;12.070;2022-08-19T00:59:25;20.70;99.90
16966;DHT22;8599;47.852;12.070;2022-08-19T01:01:52;20.70;99.90
16966;DHT22;8599;47.852;12.070;2022-08-19T01:04:19;20.70;99.90
16966;DHT22;8599;47.852;12.070;2022-08-19T01:06:46;20.70;99.90
16966;DHT22;8599;47.852;12.070;2022-08-19T01:09:13;20.70;99.90
16966;DHT22;8599;47.852;12.070;2022-08-19T01:11:43;20.70;99.90
16966;DHT22;8599;47.852;12.070;2022-08-19T01:14:12;20.80;99.90
16966;DHT22;8599;47.852;12.070;2022-08-19T01:16:40;20.80;99.90
16966;DHT22;8599;47.852;12.070;2022-08-19T01:19:12;20.80;99.90
16966;DHT22;8599;47.852;12.070;2022-08-19T01:21:46;20.80;99.90
16966;DHT22;8599;47.852;12.070;2022-08-19T01:24:17;20.80;99.90
16966;DHT22;8599;47.852;12.070;2022-08-19T01:26:45;20.80;99.90
16966;DHT22;8599;47.852;12.070;2022-08-19T01:29:12;20.80;99.90
16966;DHT22;8599;47.852;12.070;2022-08-19T01:31:39;20.80;99.90
16966;DHT22;8599;47.852;12.070;2022-08-19T01:34:07;20.80;99.90
16966;DHT22;8599;47.852;12.070;2022-08-19T01:36:36;20.70;99.90
16966;DHT22;8599;47.852;12.070;2022-08-19T01:39:06;20.60;99.90
16966;DHT22;8599;47.852;12.070;2022-08-19T01:41:35;20.60;99.90
16966;DHT22;8599;47.852;12.070;2022-08-19T01:44:05;20.60;99.90
16966;DHT22;8599;47.852;12.070;2022-08-19T01:46:32;20.60;99.90
16966;DHT22;8599;47.852;12.070;2022-08-19T01:48:59;20.60;99.90
16966;DHT22;8599;47.852;12.070;2022-08-19T01:51:27;20.70;99.90
16966;DHT22;8599;47.852;12.070;2022-08-19T01:53:54;20.70;99.90
16966;DHT22;8599;47.852;12.070;2022-08-19T01:56:21;20.80;99.90
16966;DHT22;8599;47.852;12.070;2022-08-19T01:58:53;20.90;99.90
16966;DHT22;8599;47.852;12.070;2022-08-19T02:01:20;20.90;99.90
16966;DHT22;8599;47.852;12.070;2022-08-19T02:03:47;20.80;99.90
16966;DHT22;8599;47.852;12.070;2022-08-19T02:06:14;20.80;99.90
16966;DHT22;8599;47.852;12.070;2022-08-19T02:08:43;20.60;99.90
16966;DHT22;8599;47.852;12.070;2022-08-19T02:11:18;20.60;99.90
16966;DHT22;8599;47.852;12.070;2022-08-19T02:13:46;20.50;99.90
16966;DHT22;8599;47.852;12.070;2022-08-19T02:16:16;20.50;99.90
16966;DHT22;8599;47.852;12.070;2022-08-19T02:18:43;20.50;99.90
16966;DHT22;8599;47.852;12.070;2022-08-19T02:21:10;20.50;99.90
16966;DHT22;8599;47.852;12.070;2022-08-19T02:23:38;20.50;99.90
16966;DHT22;8599;47.852;12.070;2022-08-19T02:26:05;20.50;99.90
16966;DHT22;8599;47.852;12.070;2022-08-19T02:28:32;20.50;99.90
16966;DHT22;8599;47.852;12.070;2022-08-19T02:31:00;20.40;99.90
16966;DHT22;8599;47.852;12.070;2022-08-19T02:33:29;20.50;99.90
16966;DHT22;8599;47.852;12.070;2022-08-19T02:35:56;20.40;99.90
16966;DHT22;8599;47.852;12.070;2022-08-19T02:38:23;20.30;99.90
16966;DHT22;8599;47.852;12.070;2022-08-19T02:40:53;20.40;99.90
16966;DHT22;8599;47.852;12.070;2022-08-19T02:43:21;20.30;99.90
16966;DHT22;8599;47.852;12.070;2022-08-19T02:45:49;20.30;99.90
16966;DHT22;8599;47.852;12.070;2022-08-19T02:48:18;20.30;99.90
16966;DHT22;8599;47.852;12.070;2022-08-19T02:50:48;20.40;99.90
16966;DHT22;8599;47.852;12.070;2022-08-19T02:53:18;20.50;99.90
16966;DHT22;8599;47.852;12.070;2022-08-19T02:55:46;20.60;99.90
16966;DHT22;8599;47.852;12.070;2022-08-19T02:58:14;20.50;99.90
16966;DHT22;8599;47.852;12.070;2022-08-19T03:00:43;20.40;99.90
16966;DHT22;8599;47.852;12.070;2022-08-19T03:03:10;20.40;99.90
16966;DHT22;8599;47.852;12.070;2022-08-19T03:05:37;20.60;99.90
16966;DHT22;8599;47.852;12.070;2022-08-19T03:08:05;20.60;99.90
16966;DHT22;8599;47.852;12.070;2022-08-19T03:10:32;20.50;99.90
16966;DHT22;8599;47.852;12.070;2022-08-19T03:12:59;20.40;99.90
16966;DHT22;8599;47.852;12.070;2022-08-19T03:15:26;20.50;99.90
16966;DHT22;8599;47.852;12.070;2022-08-19T03:17:53;20.50;99.90
16966;DHT22;8599;47.852;12.070;2022-08-19T03:20:20;20.50;99.90
16966;DHT22;8599;47.852;12.070;2022-08-19T03:22:46;20.60;99.90
16966;DHT22;8599;47.852;12.070;2022-08-19T03:25:15;20.50;99.90
16966;DHT22;8599;47.852;12.070;2022-08-19T03:27:42;20.60;99.90
16966;DHT22;8599;47.852;12.070;2022-08-19T03:30:10;20.50;99.90
16966;DHT22;8599;47.852;12.070;2022-08-19T03:32:37;20.40;99.90
16966;DHT22;8599;47.852;12.070;2022-08-19T03:35:04;20.50;99.90
16966;DHT22;8599;47.852;12.070;2022-08-19T03:37:31;20.50;99.90
16966;DHT22;8599;47.852;12.070;2022-08-19T03:39:58;20.60;99.90
16966;DHT22;8599;47.852;12.070;2022-08-19T03:42:27;20.60;99.90
16966;DHT22;8599;47.852;12.070;2022-08-19T03:44:54;20.60;99.90
16966;DHT22;8599;47.852;12.070;2022-08-19T03:47:21;20.60;99.90
16966;DHT22;8599;47.852;12.070;2022-08-19T03:49:47;20.50;99.90
16966;DHT22;8599;47.852;12.070;2022-08-19T03:52:14;20.60;99.90
16966;DHT22;8599;47.852;12.070;2022-08-19T03:54:41;20.60;99.90
16966;DHT22;8599;47.852;12.070;2022-08-19T03:57:08;20.60;99.90
16966;DHT22;8599;47.852;12.070;2022-08-19T03:59:38;20.60;99.90
16966;DHT22;8599;47.852;12.070;2022-08-19T04:02:10;20.60;99.90
16966;DHT22;8599;47.852;12.070;2022-08-19T04:04:37;20.60;99.90
16966;DHT22;8599;47.852;12.070;2022-08-19T04:07:05;20.60;99.90
16966;DHT22;8599;47.852;12.070;2022-08-19T04:09:34;20.50;99.90
16966;DHT22;8599;47.852;12.070;2022-08-19T04:12:02;20.50;99.90
16966;DHT22;8599;47.852;12.070;2022-08-19T04:14:31;20.60;99.90
16966;DHT22;8599;47.852;12.070;2022-08-19T04:17:00;20.60;99.90
16966;DHT22;8599;47.852;12.070;2022-08-19T04:19:29;20.60;99.90
16966;DHT22;8599;47.852;12.070;2022-08-19T04:21:56;20.60;99.90
16966;DHT22;8599;47.852;12.070;2022-08-19T04:24:24;20.60;99.90
16966;DHT22;8599;47.852;12.070;2022-08-19T04:26:51;20.60;99.90
16966;DHT22;8599;47.852;12.070;2022-08-19T04:29:22;20.60;99.90
16966;DHT22;8599;47.852;12.070;2022-08-19T04:31:50;20.60;99.90
16966;DHT22;8599;47.852;12.070;2022-08-19T04:34:22;20.50;99.90
16966;DHT22;8599;47.852;12.070;2022-08-19T04:36:50;20.50;99.90
16966;DHT22;8599;47.852;12.070;2022-08-19T04:39:20;20.40;99.90
16966;DHT22;8599;47.852;12.070;2022-08-19T04:41:48;20.40;99.90
16966;DHT22;8599;47.852;12.070;2022-08-19T04:44:34;20.40;99.90
16966;DHT22;8599;47.852;12.070;2022-08-19T04:47:02;20.30;99.90
16966;DHT22;8599;47.852;12.070;2022-08-19T04:49:32;20.30;99.90
16966;DHT22;8599;47.852;12.070;2022-08-19T04:51:59;20.30;99.90
16966;DHT22;8599;47.852;12.070;2022-08-19T04:54:26;20.20;99.90
16966;DHT22;8599;47.852;12.070;2022-08-19T04:56:53;20.30;99.90
16966;DHT22;8599;47.852;12.070;2022-08-19T04:59:21;20.30;99.90
16966;DHT22;8599;47.852;12.070;2022-08-19T05:01:48;20.30;99.90
16966;DHT22;8599;47.852;12.070;2022-08-19T05:04:16;20.30;99.90
16966;DHT22;8599;47.852;12.070;2022-08-19T05:06:44;20.20;99.90
16966;DHT22;8599;47.852;12.070;2022-08-19T05:09:13;20.20;99.90
16966;DHT22;8599;47.852;12.070;2022-08-19T05:11:40;20.20;99.90
16966;DHT22;8599;47.852;12.070;2022-08-19T05:14:07;20.20;99.90
16966;DHT22;8599;47.852;12.070;2022-08-19T05:16:35;20.20;99.90
16966;DHT22;8599;47.852;12.070;2022-08-19T05:19:01;20.20;99.90
16966;DHT22;8599;47.852;12.070;2022-08-19T05:21:47;20.20;99.90
16966;DHT22;8599;47.852;12.070;2022-08-19T05:24:31;20.10;99.90
16966;DHT22;8599;47.852;12.070;2022-08-19T05:27:00;20.10;99.90
16966;DHT22;8599;47.852;12.070;2022-08-19T05:29:28;20.10;99.90
16966;DHT22;8599;47.852;12.070;2022-08-19T05:31:58;20.10;99.90
16966;DHT22;8599;47.852;12.070;2022-08-19T05:34:25;20.10;99.90
16966;DHT22;8599;47.852;12.070;2022-08-19T05:36:55;20.10;99.90
16966;DHT22;8599;47.852;12.070;2022-08-19T05:39:26;20.10;99.90
16966;DHT22;8599;47.852;12.070;2022-08-19T05:41:55;20.00;99.90
16966;DHT22;8599;47.852;12.070;2022-08-19T05:44:24;19.90;99.90
16966;DHT22;8599;47.852;12.070;2022-08-19T05:46:51;19.80;99.90
16966;DHT22;8599;47.852;12.070;2022-08-19T05:49:20;19.80;99.90
16966;DHT22;8599;47.852;12.070;2022-08-19T05:51:47;19.80;99.90
16966;DHT22;8599;47.852;12.070;2022-08-19T05:54:16;19.80;99.90
16966;DHT22;8599;47.852;12.070;2022-08-19T05:56:43;19.90;99.90
16966;DHT22;8599;47.852;12.070;2022-08-19T05:59:14;20.00;99.90
16966;DHT22;8599;47.852;12.070;2022-08-19T06:01:43;20.00;99.90
16966;DHT22;8599;47.852;12.070;2022-08-19T06:04:10;20.10;99.90
16966;DHT22;8599;47.852;12.070;2022-08-19T06:06:37;20.10;99.90
16966;DHT22;8599;47.852;12.070;2022-08-19T06:09:06;20.10;99.90
16966;DHT22;8599;47.852;12.070;2022-08-19T06:11:38;20.10;99.90
16966;DHT22;8599;47.852;12.070;2022-08-19T06:14:11;20.10;99.90
16966;DHT22;8599;47.852;12.070;2022-08-19T06:16:39;20.10;99.90
16966;DHT22;8599;47.852;12.070;2022-08-19T06:19:08;20.10;99.90
16966;DHT22;8599;47.852;12.070;2022-08-19T06:21:37;20.00;99.90
16966;DHT22;8599;47.852;12.070;2022-08-19T06:24:06;20.00;99.90
16966;DHT22;8599;47.852;12.070;2022-08-19T06:26:36;19.90;99.90
16966;DHT22;8599;47.852;12.070;2022-08-19T06:29:04;19.90;99.90
16966;DHT22;8599;47.852;12.070;2022-08-19T06:31:33;19.90;99.90
16966;DHT22;8599;47.852;12.070;2022-08-19T06:34:01;19.90;99.90
16966;DHT22;8599;47.852;12.070;2022-08-19T06:36:31;19.90;99.90
16966;DHT22;8599;47.852;12.070;2022-08-19T06:39:03;19.90;99.90
16966;DHT22;8599;47.852;12.070;2022-08-19T06:41:31;19.90;99.90
16966;DHT22;8599;47.852;12.070;2022-08-19T06:44:02;19.90;99.90
16966;DHT22;8599;47.852;12.070;2022-08-19T06:46:29;19.90;99.90
16966;DHT22;8599;47.852;12.070;2022-08-19T06:48:57;19.90;99.90
16966;DHT22;8599;47.852;12.070;2022-08-19T06:51:24;19.80;99.90
16966;DHT22;8599;47.852;12.070;2022-08-19T06:53:54;19.80;99.90
16966;DHT22;8599;47.852;12.070;2022-08-19T06:56:24;19.80;99.90
16966;DHT22;8599;47.852;12.070;2022-08-19T06:58:56;19.90;99.90
16966;DHT22;8599;47.852;12.070;2022-08-19T07:01:24;19.90;99.90
16966;DHT22;8599;47.852;12.070;2022-08-19T07:03:51;19.90;99.90
16966;DHT22;8599;47.852;12.070;2022-08-19T07:06:19;19.90;99.90
16966;DHT22;8599;47.852;12.070;2022-08-19T07:08:47;19.90;99.90
16966;DHT22;8599;47.852;12.070;2022-08-19T07:11:17;19.90;99.90
16966;DHT22;8599;47.852;12.070;2022-08-19T07:13:45;20.00;99.90
16966;DHT22;8599;47.852;12.070;2022-08-19T07:16:15;20.10;99.90
16966;DHT22;8599;47.852;12.070;2022-08-19T07:18:44;20.30;99.90
16966;DHT22;8599;47.852;12.070;2022-08-19T07:21:13;20.40;99.90
16966;DHT22;8599;47.852;12.070;2022-08-19T07:23:41;20.50;99.90
16966;DHT22;8599;47.852;12.070;2022-08-19T07:26:09;20.50;99.90
16966;DHT22;8599;47.852;12.070;2022-08-19T07:28:36;20.60;99.90
16966;DHT22;8599;47.852;12.070;2022-08-19T07:31:05;20.60;99.90
16966;DHT22;8599;47.852;12.070;2022-08-19T07:33:33;20.60;99.90
16966;DHT22;8599;47.852;12.070;2022-08-19T07:36:03;20.60;99.90
16966;DHT22;8599;47.852;12.070;2022-08-19T07:38:30;20.60;99.90
16966;DHT22;8599;47.852;12.070;2022-08-19T07:40:57;20.50;99.90
16966;DHT22;8599;47.852;12.070;2022-08-19T07:43:24;20.50;99.90
16966;DHT22;8599;47.852;12.070;2022-08-19T07:45:52;20.60;99.90
16966;DHT22;8599;47.852;12.070;2022-08-19T07:48:21;20.60;99.90
16966;DHT22;8599;47.852;12.070;2022-08-19T07:50:48;20.50;99.90
16966;DHT22;8599;47.852;12.070;2022-08-19T07:53:17;20.50;99.90
16966;DHT22;8599;47.852;12.070;2022-08-19T07:55:43;20.50;99.90
16966;DHT22;8599;47.852;12.070;2022-08-19T07:58:12;20.60;99.90
16966;DHT22;8599;47.852;12.070;2022-08-19T08:00:41;20.70;99.90
16966;DHT22;8599;47.852;12.070;2022-08-19T08:03:08;20.80;99.90
16966;DHT22;8599;47.852;12.070;2022-08-19T08:05:35;20.90;99.90
16966;DHT22;8599;47.852;12.070;2022-08-19T08:08:21;21.00;99.90
16966;DHT22;8599;47.852;12.070;2022-08-19T08:11:02;20.90;99.90
16966;DHT22;8599;47.852;12.070;2022-08-19T08:13:29;20.80;99.90
16966;DHT22;8599;47.852;12.070;2022-08-19T08:15:56;20.70;99.90
16966;DHT22;8599;47.852;12.070;2022-08-19T08:18:24;20.80;99.90
16966;DHT22;8599;47.852;12.070;2022-08-19T08:20:51;20.80;99.90
16966;DHT22;8599;47.852;12.070;2022-08-19T08:23:18;20.80;99.90
16966;DHT22;8599;47.852;12.070;2022-08-19T08:25:54;20.90;99.90
16966;DHT22;8599;47.852;12.070;2022-08-19T08:28:22;20.90;99.90
16966;DHT22;8599;47.852;12.070;2022-08-19T08:30:50;21.00;99.90
16966;DHT22;8599;47.852;12.070;2022-08-19T08:33:18;21.00;99.90
16966;DHT22;8599;47.852;12.070;2022-08-19T08:35:45;20.90;99.90
16966;DHT22;8599;47.852;12.070;2022-08-19T08:38:16;20.90;99.90
16966;DHT22;8599;47.852;12.070;2022-08-19T08:40:47;20.90;99.90
16966;DHT22;8599;47.852;12.070;2022-08-19T08:43:23;20.90;99.90
16966;DHT22;8599;47.852;12.070;2022-08-19T08:45:56;21.00;99.90
16966;DHT22;8599;47.852;12.070;2022-08-19T08:48:35;21.10;99.90
16966;DHT22;8599;47.852;12.070;2022-08-19T08:51:05;21.30;99.90
16966;DHT22;8599;47.852;12.070;2022-08-19T08:53:34;21.40;99.90
16966;DHT22;8599;47.852;12.070;2022-08-19T08:56:04;21.50;99.90
16966;DHT22;8599;47.852;12.070;2022-08-19T08:58:48;21.50;99.90
16966;DHT22;8599;47.852;12.070;2022-08-19T09:01:16;21.50;99.90
16966;DHT22;8599;47.852;12.070;2022-08-19T09:03:44;21.40;99.90
16966;DHT22;8599;47.852;12.070;2022-08-19T09:06:14;21.50;99.90
16966;DHT22;8599;47.852;12.070;2022-08-19T09:08:49;21.40;99.90
16966;DHT22;8599;47.852;12.070;2022-08-19T09:11:22;21.40;99.90
16966;DHT22;8599;47.852;12.070;2022-08-19T09:14:02;21.50;99.90
16966;DHT22;8599;47.852;12.070;2022-08-19T09:16:36;21.50;99.90
16966;DHT22;8599;47.852;12.070;2022-08-19T09:19:07;21.50;99.90
16966;DHT22;8599;47.852;12.070;2022-08-19T09:21:34;21.60;99.90
16966;DHT22;8599;47.852;12.070;2022-08-19T09:24:02;21.80;99.90
16966;DHT22;8599;47.852;12.070;2022-08-19T09:26:30;22.00;99.90
16966;DHT22;8599;47.852;12.070;2022-08-19T09:28:59;22.10;99.90
16966;DHT22;8599;47.852;12.070;2022-08-19T09:31:28;22.10;99.90
16966;DHT22;8599;47.852;12.070;2022-08-19T09:33:56;22.00;99.90
16966;DHT22;8599;47.852;12.070;2022-08-19T09:36:25;22.00;99.90
16966;DHT22;8599;47.852;12.070;2022-08-19T09:38:52;22.00;99.90
16966;DHT22;8599;47.852;12.070;2022-08-19T09:41:21;21.90;99.90
16966;DHT22;8599;47.852;12.070;2022-08-19T09:43:50;22.00;99.90
16966;DHT22;8599;47.852;12.070;2022-08-19T09:46:21;22.00;99.90
16966;DHT22;8599;47.852;12.070;2022-08-19T09:48:49;22.00;99.90
16966;DHT22;8599;47.852;12.070;2022-08-19T09:51:20;22.10;99.90
16966;DHT22;8599;47.852;12.070;2022-08-19T09:53:48;22.30;99.90
16966;DHT22;8599;47.852;12.070;2022-08-19T09:56:18;22.30;99.90
16966;DHT22;8599;47.852;12.070;2022-08-19T09:58:45;22.10;99.90
16966;DHT22;8599;47.852;12.070;2022-08-19T10:01:17;22.10;99.90
16966;DHT22;8599;47.852;12.070;2022-08-19T10:03:47;22.20;99.90
16966;DHT22;8599;47.852;12.070;2022-08-19T10:06:14;22.30;99.90
16966;DHT22;8599;47.852;12.070;2022-08-19T10:08:41;22.50;99.90
16966;DHT22;8599;47.852;12.070;2022-08-19T10:11:09;22.60;99.90
16966;DHT22;8599;47.852;12.070;2022-08-19T10:13:36;22.70;99.90
16966;DHT22;8599;47.852;12.070;2022-08-19T10:16:05;22.70;99.90
16966;DHT22;8599;47.852;12.070;2022-08-19T10:18:33;22.80;99.90
16966;DHT22;8599;47.852;12.070;2022-08-19T10:21:07;22.80;99.90
16966;DHT22;8599;47.852;12.070;2022-08-19T10:23:35;22.90;99.90
16966;DHT22;8599;47.852;12.070;2022-08-19T10:26:03;22.90;99.90
16966;DHT22;8599;47.852;12.070;2022-08-19T10:28:32;23.00;99.90
16966;DHT22;8599;47.852;12.070;2022-08-19T10:31:04;23.10;99.90
16966;DHT22;8599;47.852;12.070;2022-08-19T10:33:32;23.10;99.90
16966;DHT22;8599;47.852;12.070;2022-08-19T10:36:00;23.00;99.90
16966;DHT22;8599;47.852;12.070;2022-08-19T10:38:28;22.90;99.90
16966;DHT22;8599;47.852;12.070;2022-08-19T10:40:57;22.80;99.90
16966;DHT22;8599;47.852;12.070;2022-08-19T10:43:24;22.80;99.90
16966;DHT22;8599;47.852;12.070;2022-08-19T10:45:55;22.90;99.90
16966;DHT22;8599;47.852;12.070;2022-08-19T10:48:25;23.10;99.90
16966;DHT22;8599;47.852;12.070;2022-08-19T10:50:51;23.10;99.90
16966;DHT22;8599;47.852;12.070;2022-08-19T10:53:37;23.20;99.90
16966;DHT22;8599;47.852;12.070;2022-08-19T10:56:04;23.20;99.90
16966;DHT22;8599;47.852;12.070;2022-08-19T10:58:49;23.20;99.90
16966;DHT22;8599;47.852;12.070;2022-08-19T11:01:16;23.20;99.90
16966;DHT22;8599;47.852;12.070;2022-08-19T11:03:42;23.10;99.90
16966;DHT22;8599;47.852;12.070;2022-08-19T11:06:11;23.10;99.90
16966;DHT22;8599;47.852;12.070;2022-08-19T11:08:39;23.20;99.90
16966;DHT22;8599;47.852;12.070;2022-08-19T11:11:07;23.20;99.90
16966;DHT22;8599;47.852;12.070;2022-08-19T11:13:36;23.30;99.90
16966;DHT22;8599;47.852;12.070;2022-08-19T11:16:07;23.20;99.90
16966;DHT22;8599;47.852;12.070;2022-08-19T11:18:36;23.20;99.90
16966;DHT22;8599;47.852;12.070;2022-08-19T11:21:09;23.10;99.90
16966;DHT22;8599;47.852;12.070;2022-08-19T11:23:38;23.10;99.90
16966;DHT22;8599;47.852;12.070;2022-08-19T11:26:05;23.10;99.90
16966;DHT22;8599;47.852;12.070;2022-08-19T11:28:32;23.40;99.90
16966;DHT22;8599;47.852;12.070;2022-08-19T11:30:59;23.70;99.90
16966;DHT22;8599;47.852;12.070;2022-08-19T11:33:29;24.10;99.90
16966;DHT22;8599;47.852;12.070;2022-08-19T11:35:57;24.30;99.90
16966;DHT22;8599;47.852;12.070;2022-08-19T11:38:25;24.40;99.90
16966;DHT22;8599;47.852;12.070;2022-08-19T11:40:57;24.30;99.90
16966;DHT22;8599;47.852;12.070;2022-08-19T11:43:25;24.20;99.90
16966;DHT22;8599;47.852;12.070;2022-08-19T11:45:52;24.20;99.90
16966;DHT22;8599;47.852;12.070;2022-08-19T11:48:20;24.10;99.90
16966;DHT22;8599;47.852;12.070;2022-08-19T11:50:48;24.10;99.90
16966;DHT22;8599;47.852;12.070;2022-08-19T11:53:15;24.20;99.90
16966;DHT22;8599;47.852;12.070;2022-08-19T11:55:44;24.30;99.90
16966;DHT22;8599;47.852;12.070;2022-08-19T11:58:13;24.60;99.90
16966;DHT22;8599;47.852;12.070;2022-08-19T12:00:41;24.70;99.90
16966;DHT22;8599;47.852;12.070;2022-08-19T12:03:11;24.40;99.90
16966;DHT22;8599;47.852;12.070;2022-08-19T12:05:38;24.10;99.90
16966;DHT22;8599;47.852;12.070;2022-08-19T12:08:06;24.00;99.90
16966;DHT22;8599;47.852;12.070;2022-08-19T12:10:33;24.10;99.90
16966;DHT22;8599;47.852;12.070;2022-08-19T12:13:00;24.20;99.90
16966;DHT22;8599;47.852;12.070;2022-08-19T12:15:29;24.30;99.90
16966;DHT22;8599;47.852;12.070;2022-08-19T12:17:57;24.40;99.90
16966;DHT22;8599;47.852;12.070;2022-08-19T12:20:24;24.30;99.90
16966;DHT22;8599;47.852;12.070;2022-08-19T12:22:52;24.00;99.90
16966;DHT22;8599;47.852;12.070;2022-08-19T12:25:18;23.80;99.90
16966;DHT22;8599;47.852;12.070;2022-08-19T12:27:46;23.70;99.90
16966;DHT22;8599;47.852;12.070;2022-08-19T12:30:15;23.80;99.90
16966;DHT22;8599;47.852;12.070;2022-08-19T12:32:43;23.80;99.90
16966;DHT22;8599;47.852;12.070;2022-08-19T12:35:10;23.70;99.90
16966;DHT22;8599;47.852;12.070;2022-08-19T12:37:38;23.70;99.90
16966;DHT22;8599;47.852;12.070;2022-08-19T12:40:11;23.70;99.90
16966;DHT22;8599;47.852;12.070;2022-08-19T12:42:38;23.80;99.90
16966;DHT22;8599;47.852;12.070;2022-08-19T12:45:08;23.90;99.90
16966;DHT22;8599;47.852;12.070;2022-08-19T12:47:36;24.00;99.90
16966;DHT22;8599;47.852;12.070;2022-08-19T12:50:05;24.00;99.90
16966;DHT22;8599;47.852;12.070;2022-08-19T12:52:34;24.00;99.90
16966;DHT22;8599;47.852;12.070;2022-08-19T12:55:03;23.90;99.90
16966;DHT22;8599;47.852;12.070;2022-08-19T12:57:30;23.80;99.90
16966;DHT22;8599;47.852;12.070;2022-08-19T12:59:59;23.80;99.90
16966;DHT22;8599;47.852;12.070;2022-08-19T13:02:26;23.90;99.90
16966;DHT22;8599;47.852;12.070;2022-08-19T13:04:53;23.90;99.90
16966;DHT22;8599;47.852;12.070;2022-08-19T13:07:22;23.90;99.90
16966;DHT22;8599;47.852;12.070;2022-08-19T13:09:51;23.80;99.90
16966;DHT22;8599;47.852;12.070;2022-08-19T13:12:18;23.90;99.90
16966;DHT22;8599;47.852;12.070;2022-08-19T13:14:45;23.80;99.90
16966;DHT22;8599;47.852;12.070;2022-08-19T13:17:16;23.80;99.90
16966;DHT22;8599;47.852;12.070;2022-08-19T13:19:43;23.80;99.90
16966;DHT22;8599;47.852;12.070;2022-08-19T13:22:10;23.80;99.90
16966;DHT22;8599;47.852;12.070;2022-08-19T13:24:38;23.80;99.90
16966;DHT22;8599;47.852;12.070;2022-08-19T13:27:05;23.80;99.90
16966;DHT22;8599;47.852;12.070;2022-08-19T13:29:33;23.80;99.90
16966;DHT22;8599;47.852;12.070;2022-08-19T13:32:17;24.00;99.90
16966;DHT22;8599;47.852;12.070;2022-08-19T13:35:01;24.00;99.90
16966;DHT22;8599;47.852;12.070;2022-08-19T13:37:28;24.10;99.90
16966;DHT22;8599;47.852;12.070;2022-08-19T13:40:16;24.10;99.90
16966;DHT22;8599;47.852;12.070;2022-08-19T13:42:44;24.10;99.90
16966;DHT22;8599;47.852;12.070;2022-08-19T13:45:14;24.10;99.90
16966;DHT22;8599;47.852;12.070;2022-08-19T13:47:42;23.80;99.90
16966;DHT22;8599;47.852;12.070;2022-08-19T13:50:10;23.90;99.90
16966;DHT22;8599;47.852;12.070;2022-08-19T13:52:38;23.80;99.90
16966;DHT22;8599;47.852;12.070;2022-08-19T13:55:06;23.70;99.90
16966;DHT22;8599;47.852;12.070;2022-08-19T13:57:35;23.60;99.90
16966;DHT22;8599;47.852;12.070;2022-08-19T14:00:07;23.50;99.90
16966;DHT22;8599;47.852;12.070;2022-08-19T14:02:35;23.40;99.90
16966;DHT22;8599;47.852;12.070;2022-08-19T14:05:03;23.40;99.90
16966;DHT22;8599;47.852;12.070;2022-08-19T14:07:30;23.30;99.90
16966;DHT22;8599;47.852;12.070;2022-08-19T14:09:57;23.20;99.90
16966;DHT22;8599;47.852;12.070;2022-08-19T14:12:24;23.30;99.90
16966;DHT22;8599;47.852;12.070;2022-08-19T14:14:53;23.40;99.90
16966;DHT22;8599;47.852;12.070;2022-08-19T14:17:22;23.40;99.90
16966;DHT22;8599;47.852;12.070;2022-08-19T14:19:50;23.60;99.90
16966;DHT22;8599;47.852;12.070;2022-08-19T14:22:22;23.70;99.90
16966;DHT22;8599;47.852;12.070;2022-08-19T14:24:49;23.90;99.90
16966;DHT22;8599;47.852;12.070;2022-08-19T14:27:16;24.00;99.90
16966;DHT22;8599;47.852;12.070;2022-08-19T14:29:43;24.00;99.90
16966;DHT22;8599;47.852;12.070;2022-08-19T14:32:12;23.90;99.90
16966;DHT22;8599;47.852;12.070;2022-08-19T14:34:39;23.80;99.90
16966;DHT22;8599;47.852;12.070;2022-08-19T14:37:05;23.60;99.90
16966;DHT22;8599;47.852;12.070;2022-08-19T14:39:34;23.60;99.90
16966;DHT22;8599;47.852;12.070;2022-08-19T14:42:05;23.60;99.90
16966;DHT22;8599;47.852;12.070;2022-08-19T14:44:33;23.50;99.90
16966;DHT22;8599;47.852;12.070;2022-08-19T14:47:00;23.60;99.90
16966;DHT22;8599;47.852;12.070;2022-08-19T14:49:29;23.50;99.90
16966;DHT22;8599;47.852;12.070;2022-08-19T14:51:56;23.40;99.90
16966;DHT22;8599;47.852;12.070;2022-08-19T14:54:23;23.40;99.90
16966;DHT22;8599;47.852;12.070;2022-08-19T14:56:49;23.30;99.90
16966;DHT22;8599;47.852;12.070;2022-08-19T14:59:16;23.40;99.90
16966;DHT22;8599;47.852;12.070;2022-08-19T15:01:44;23.40;99.90
16966;DHT22;8599;47.852;12.070;2022-08-19T15:04:11;23.50;99.90
16966;DHT22;8599;47.852;12.070;2022-08-19T15:06:39;23.50;99.90
16966;DHT22;8599;47.852;12.070;2022-08-19T15:09:08;23.50;99.90
16966;DHT22;8599;47.852;12.070;2022-08-19T15:11:35;23.40;99.90
16966;DHT22;8599;47.852;12.070;2022-08-19T15:14:04;23.40;99.90
16966;DHT22;8599;47.852;12.070;2022-08-19T15:16:32;23.30;99.90
16966;DHT22;8599;47.852;12.070;2022-08-19T15:18:59;23.30;99.90
16966;DHT22;8599;47.852;12.070;2022-08-19T15:21:27;23.10;99.90
16966;DHT22;8599;47.852;12.070;2022-08-19T15:23:57;23.10;99.90
16966;DHT22;8599;47.852;12.070;2022-08-19T15:26:24;23.20;99.90
16966;DHT22;8599;47.852;12.070;2022-08-19T15:28:51;23.20;99.90
16966;DHT22;8599;47.852;12.070;2022-08-19T15:31:19;23.30;99.90
16966;DHT22;8599;47.852;12.070;2022-08-19T15:33:48;23.20;99.90
16966;DHT22;8599;47.852;12.070;2022-08-19T15:36:16;23.20;99.90
16966;DHT22;8599;47.852;12.070;2022-08-19T15:38:43;23.20;99.90